< < Back
Terminal Aerodrome Forecast


Current Version              Previous Versions:   1  2  3  4  5  6  7  8  9  

Terminal Aerodrome Forecast

175
FTUS42 KCHS 302328
TAFSAV
TAF
KSAV 302328Z 3100/3124 19010KT P6SM SCT040 BKN100
     FM310500 21005KT P6SM SKC
     FM311800 18011KT P6SM SCT040=

Latest METAR

830
SAUS80 KWBC 310500 CCA
MTRSAV
METAR KSAV 310453Z AUTO 20009KT 10SM CLR 29/23 A3003 RMK AO2 SLP169
T02890233 403780250 TSNO


USA.gov is the U.S. government's official web portal to all federal, state and local government web resources and services.